createdAt,value
2022-09-20T00:01:36.898Z,6.90
2022-09-20T00:04:05.592Z,6.47
2022-09-20T00:06:34.802Z,6.80
2022-09-20T00:09:05.855Z,6.18
2022-09-20T00:11:38.469Z,7.13
2022-09-20T00:14:08.730Z,7.25
2022-09-20T00:16:39.108Z,6.97
2022-09-20T00:19:08.064Z,7.05
2022-09-20T00:21:38.055Z,6.55
2022-09-20T00:24:07.713Z,7.60
2022-09-20T00:26:38.100Z,6.95
2022-09-20T00:29:05.500Z,6.75
2022-09-20T00:31:33.058Z,7.60
2022-09-20T00:34:23.674Z,7.47
2022-09-20T00:36:51.033Z,7.22
2022-09-20T00:39:20.674Z,8.02
2022-09-20T00:41:47.783Z,8.40
2022-09-20T00:44:49.073Z,7.57
2022-09-20T00:47:38.322Z,8.15
2022-09-20T00:50:33.175Z,7.30
2022-09-20T00:53:09.712Z,8.02
2022-09-20T00:55:42.103Z,7.55
2022-09-20T00:58:14.708Z,7.72
2022-09-20T01:00:45.628Z,8.68
2022-09-20T01:03:16.006Z,8.98
2022-09-20T01:05:46.866Z,8.43
2022-09-20T01:08:14.395Z,8.35
2022-09-20T01:10:47.078Z,8.27
2022-09-20T01:13:14.717Z,8.15
2022-09-20T01:15:48.719Z,7.63
2022-09-20T01:18:18.329Z,8.05
2022-09-20T01:20:47.057Z,7.00
2022-09-20T01:23:37.709Z,7.40
2022-09-20T01:26:38.180Z,7.43
2022-09-20T01:29:33.038Z,6.55
2022-09-20T01:32:04.064Z,5.93
2022-09-20T01:34:40.479Z,6.65
2022-09-20T01:37:30.613Z,6.13
2022-09-20T01:40:10.608Z,5.97
2022-09-20T01:42:48.918Z,5.70
2022-09-20T01:45:28.571Z,6.28
2022-09-20T01:48:03.981Z,6.47
2022-09-20T01:50:37.197Z,6.60
2022-09-20T01:53:36.398Z,6.13
2022-09-20T01:56:22.123Z,5.18
2022-09-20T01:59:19.711Z,5.32
2022-09-20T02:01:58.274Z,5.93
2022-09-20T02:04:27.767Z,6.28
2022-09-20T02:07:35.191Z,6.32
2022-09-20T02:10:34.996Z,6.30
2022-09-20T02:13:29.283Z,5.95
2022-09-20T02:16:36.077Z,6.95
2022-09-20T02:19:33.033Z,5.80
2022-09-20T02:22:30.017Z,6.18
2022-09-20T02:25:15.220Z,6.78
2022-09-20T02:27:57.620Z,6.30
2022-09-20T02:30:36.405Z,6.78
2022-09-20T02:33:21.355Z,6.22
2022-09-20T02:36:23.791Z,7.03
2022-09-20T02:42:17.662Z,7.05
2022-09-20T02:44:57.382Z,6.38
2022-09-20T02:47:37.845Z,6.85
2022-09-20T02:50:22.977Z,6.70
2022-09-20T02:53:08.670Z,5.60
2022-09-20T02:55:38.799Z,6.20
2022-09-20T02:58:29.351Z,6.20
2022-09-20T03:01:17.581Z,6.30
2022-09-20T03:04:08.626Z,5.88
2022-09-20T03:07:03.533Z,5.57
2022-09-20T03:09:51.963Z,6.07
2022-09-20T03:12:53.463Z,6.90
2022-09-20T03:15:29.602Z,6.68
2022-09-20T03:18:17.262Z,6.72
2022-09-20T03:20:55.413Z,7.07
2022-09-20T03:24:03.867Z,7.07
2022-09-20T03:26:42.551Z,7.18
2022-09-20T03:29:33.791Z,8.10
2022-09-20T03:32:25.400Z,7.88
2022-09-20T03:35:23.958Z,7.38
2022-09-20T03:38:12.213Z,7.28
2022-09-20T03:41:13.404Z,7.85
2022-09-20T03:44:00.531Z,7.30
2022-09-20T03:46:30.279Z,7.35
2022-09-20T03:49:00.494Z,7.05
2022-09-20T03:51:44.482Z,7.03
2022-09-20T03:54:45.138Z,6.38
2022-09-20T03:57:18.270Z,7.60
2022-09-20T04:00:01.795Z,6.93
2022-09-20T04:02:58.398Z,7.80
2022-09-20T04:05:53.232Z,8.02
2022-09-20T04:08:48.660Z,8.30
2022-09-20T04:11:51.992Z,8.88
2022-09-20T04:14:43.166Z,9.50
2022-09-20T04:17:24.434Z,8.52
2022-09-20T04:20:13.365Z,8.75
2022-09-20T04:22:44.691Z,8.85
2022-09-20T04:25:29.077Z,8.63
2022-09-20T04:28:12.187Z,8.85
2022-09-20T04:30:44.149Z,8.63
2022-09-20T04:33:44.287Z,10.02
2022-09-20T04:36:29.634Z,9.25
2022-09-20T04:42:17.309Z,10.65
2022-09-20T04:44:56.642Z,9.32
2022-09-20T04:47:48.096Z,10.00
2022-09-20T04:50:38.498Z,9.70
2022-09-20T04:53:23.577Z,9.37
2022-09-20T04:56:05.856Z,9.07
2022-09-20T04:58:43.635Z,9.90
2022-09-20T05:01:17.052Z,9.00
2022-09-20T05:04:18.389Z,8.95
2022-09-20T05:07:04.612Z,10.25
2022-09-20T05:09:58.533Z,11.05
2022-09-20T05:12:55.887Z,10.05
2022-09-20T05:15:43.324Z,9.10
2022-09-20T05:18:49.014Z,8.77
2022-09-20T05:21:46.492Z,8.32
2022-09-20T05:24:27.613Z,9.13
2022-09-20T05:27:25.201Z,9.35
2022-09-20T05:30:38.039Z,8.38
2022-09-20T05:33:08.189Z,10.10
2022-09-20T05:36:02.310Z,9.70
2022-09-20T05:38:49.731Z,8.43
2022-09-20T05:41:54.982Z,9.68
2022-09-20T05:44:49.373Z,8.80
2022-09-20T05:47:59.830Z,9.77
2022-09-20T05:50:37.045Z,10.05
2022-09-20T05:53:33.325Z,10.23
2022-09-20T05:56:17.294Z,9.38
2022-09-20T05:59:07.779Z,7.78
2022-09-20T06:02:07.412Z,9.88
2022-09-20T06:04:40.295Z,8.40
2022-09-20T06:07:25.864Z,9.65
2022-09-20T06:10:17.530Z,9.65
2022-09-20T06:12:52.848Z,8.68
2022-09-20T06:15:49.610Z,9.30
2022-09-20T06:18:36.370Z,9.75
2022-09-20T06:21:46.955Z,8.23
2022-09-20T06:24:36.685Z,8.55
2022-09-20T06:27:17.775Z,9.10
2022-09-20T06:30:06.429Z,8.35
2022-09-20T06:32:56.771Z,8.55
2022-09-20T06:35:30.051Z,8.90
2022-09-20T06:38:41.826Z,9.23
2022-09-20T06:41:29.903Z,9.20
2022-09-20T06:44:00.291Z,9.27
2022-09-20T06:46:33.035Z,10.23
2022-09-20T06:49:04.147Z,9.65
2022-09-20T06:51:36.422Z,9.80
2022-09-20T06:54:05.214Z,10.27
2022-09-20T06:56:36.924Z,10.18
2022-09-20T06:59:15.121Z,8.60
2022-09-20T07:01:43.436Z,10.13
2022-09-20T07:04:10.761Z,9.48
2022-09-20T07:06:38.144Z,9.65
2022-09-20T07:09:10.332Z,8.93
2022-09-20T07:14:08.014Z,8.32
2022-09-20T07:16:38.357Z,8.20
2022-09-20T07:19:08.392Z,9.02
2022-09-20T07:21:40.471Z,8.45
2022-09-20T07:24:10.359Z,9.65
2022-09-20T07:26:39.071Z,8.40
2022-09-20T07:29:08.732Z,9.32
2022-09-20T07:31:38.314Z,9.13
2022-09-20T07:34:11.066Z,8.00
2022-09-20T07:36:40.788Z,8.68
2022-09-20T07:39:07.877Z,7.95
2022-09-20T07:41:34.910Z,8.82
2022-09-20T07:44:20.906Z,10.30
2022-09-20T07:46:49.412Z,8.32
2022-09-20T07:49:19.554Z,8.32
2022-09-20T07:51:52.276Z,8.98
2022-09-20T07:54:22.294Z,7.53
2022-09-20T07:56:49.379Z,8.10
2022-09-20T07:59:17.038Z,9.07
2022-09-20T08:01:44.420Z,8.70
2022-09-20T08:04:11.965Z,8.77
2022-09-20T08:06:43.742Z,8.95
2022-09-20T08:09:12.383Z,9.00
2022-09-20T08:11:43.525Z,7.80
2022-09-20T08:14:17.513Z,9.13
2022-09-20T08:16:47.452Z,9.15
2022-09-20T08:19:20.873Z,9.40
2022-09-20T08:21:53.345Z,8.85
2022-09-20T08:26:54.196Z,8.18
2022-09-20T08:29:23.843Z,9.07
2022-09-20T08:31:53.053Z,10.07
2022-09-20T08:34:20.449Z,8.38
2022-09-20T08:36:50.113Z,8.82
2022-09-20T08:42:25.120Z,8.07
2022-09-20T08:45:21.818Z,9.18
2022-09-20T08:47:58.903Z,8.50
2022-09-20T08:50:30.887Z,8.05
2022-09-20T08:53:05.021Z,7.28
2022-09-20T08:55:36.828Z,7.53
2022-09-20T09:00:38.363Z,7.20
2022-09-20T09:03:13.254Z,7.45
2022-09-20T09:05:49.166Z,6.45
2022-09-20T09:08:37.607Z,6.75
2022-09-20T09:11:13.998Z,7.55
2022-09-20T09:14:02.193Z,6.43
2022-09-20T09:16:35.402Z,6.15
2022-09-20T09:19:33.244Z,6.32
2022-09-20T09:22:03.086Z,6.18
2022-09-20T09:24:35.186Z,6.18
2022-09-20T09:27:16.425Z,6.30
2022-09-20T09:29:51.071Z,7.03
2022-09-20T09:32:31.005Z,7.65
2022-09-20T09:35:28.066Z,6.85
2022-09-20T09:38:00.862Z,6.35
2022-09-20T09:40:31.609Z,6.72
2022-09-20T09:43:01.310Z,7.20
2022-09-20T09:45:39.056Z,6.60
2022-09-20T09:48:27.717Z,6.00
2022-09-20T09:51:19.753Z,6.00
2022-09-20T09:53:49.247Z,6.03
2022-09-20T09:56:37.586Z,6.43
2022-09-20T09:59:28.365Z,6.47
2022-09-20T10:02:23.476Z,5.40
2022-09-20T10:05:03.185Z,7.32
2022-09-20T10:07:44.870Z,6.05
2022-09-20T10:10:34.269Z,7.00
2022-09-20T10:13:15.032Z,6.65
2022-09-20T10:15:51.217Z,7.38
2022-09-20T10:18:39.831Z,7.53
2022-09-20T10:21:28.902Z,6.72
2022-09-20T10:24:31.026Z,8.57
2022-09-20T10:27:05.963Z,6.45
2022-09-20T10:30:10.672Z,7.38
2022-09-20T10:32:55.291Z,7.57
2022-09-20T10:35:53.371Z,6.00
2022-09-20T10:38:48.946Z,5.95
2022-09-20T10:42:23.922Z,6.28
2022-09-20T10:45:24.576Z,6.00
2022-09-20T10:48:08.227Z,5.75
2022-09-20T10:51:02.716Z,7.50
2022-09-20T10:53:41.419Z,5.43
2022-09-20T10:56:20.524Z,5.72
2022-09-20T10:59:07.832Z,5.30
2022-09-20T11:01:50.216Z,4.90
2022-09-20T11:04:28.810Z,6.40
2022-09-20T11:07:07.937Z,5.80
2022-09-20T11:09:40.881Z,6.35
2022-09-20T11:12:33.613Z,5.25
2022-09-20T11:15:12.348Z,5.43
2022-09-20T11:17:59.723Z,6.65
2022-09-20T11:20:33.326Z,7.32
2022-09-20T11:23:10.321Z,7.22
2022-09-20T11:25:51.924Z,7.32
2022-09-20T11:28:33.366Z,6.97
2022-09-20T11:31:20.243Z,7.05
2022-09-20T11:33:54.489Z,6.20
2022-09-20T11:36:27.644Z,6.10
2022-09-20T11:39:03.716Z,5.85
2022-09-20T11:41:36.653Z,6.03
2022-09-20T11:44:13.751Z,5.53
2022-09-20T11:46:52.300Z,5.03
2022-09-20T11:49:29.166Z,5.50
2022-09-20T11:52:33.592Z,5.70
2022-09-20T11:55:24.249Z,5.75
2022-09-20T11:58:16.700Z,5.30
2022-09-20T12:03:30.748Z,4.57
2022-09-20T12:06:23.675Z,3.80
2022-09-20T12:08:52.115Z,3.90
2022-09-20T12:11:36.080Z,3.00
2022-09-20T12:14:16.865Z,4.05
2022-09-20T12:16:46.576Z,3.88
2022-09-20T12:19:14.676Z,3.72
2022-09-20T12:22:01.842Z,2.55
2022-09-20T12:24:35.375Z,3.33
2022-09-20T12:27:27.337Z,2.85
2022-09-20T12:30:16.837Z,3.58
2022-09-20T12:32:47.420Z,3.30
2022-09-20T12:35:36.168Z,2.90
2022-09-20T12:38:20.991Z,2.55
2022-09-20T12:41:08.540Z,3.55
2022-09-20T12:43:46.464Z,2.75
2022-09-20T12:46:38.995Z,2.83
2022-09-20T12:49:54.203Z,2.90
2022-09-20T12:52:50.691Z,4.53
2022-09-20T12:55:33.538Z,3.17
2022-09-20T12:58:16.015Z,3.50
2022-09-20T13:00:59.203Z,4.22
2022-09-20T13:03:32.037Z,3.05
2022-09-20T13:08:59.831Z,3.60
2022-09-20T13:11:43.379Z,3.50
2022-09-20T13:14:20.673Z,3.95
2022-09-20T13:16:59.039Z,3.58
2022-09-20T13:19:39.014Z,3.35
2022-09-20T13:22:13.365Z,2.80
2022-09-20T13:24:46.946Z,2.47
2022-09-20T13:27:22.253Z,5.70
2022-09-20T13:29:50.967Z,2.97
2022-09-20T13:32:31.673Z,3.17
2022-09-20T13:35:14.456Z,3.42
2022-09-20T13:37:59.329Z,2.85
2022-09-20T13:40:33.283Z,2.30
2022-09-20T13:43:23.509Z,1.92
2022-09-20T13:46:02.270Z,2.15
2022-09-20T13:48:32.562Z,2.65
2022-09-20T13:51:02.595Z,2.25
2022-09-20T13:53:41.485Z,2.53
2022-09-20T13:56:16.458Z,2.95
2022-09-20T13:58:43.867Z,2.00
2022-09-20T14:01:32.738Z,2.30
2022-09-20T14:04:15.633Z,2.00
2022-09-20T14:06:43.537Z,2.45
2022-09-20T14:09:26.523Z,2.17
2022-09-20T14:11:58.766Z,1.88
2022-09-20T14:14:29.350Z,2.47
2022-09-20T14:17:01.387Z,2.95
2022-09-20T14:19:38.920Z,2.33
2022-09-20T14:22:07.297Z,2.22
2022-09-20T14:24:37.826Z,2.17
2022-09-20T14:27:23.526Z,2.30
2022-09-20T14:29:53.198Z,2.22
2022-09-20T14:32:22.573Z,2.15
2022-09-20T14:34:56.022Z,1.95
2022-09-20T14:37:34.159Z,1.88
2022-09-20T14:40:23.603Z,1.88
2022-09-20T14:43:05.370Z,2.40
2022-09-20T14:45:39.359Z,3.15
2022-09-20T14:48:31.999Z,2.40
2022-09-20T14:51:22.199Z,2.35
2022-09-20T14:54:05.211Z,2.17
2022-09-20T14:56:42.170Z,2.60
2022-09-20T14:59:09.534Z,2.58
2022-09-20T15:01:41.052Z,2.50
2022-09-20T15:04:10.628Z,2.45
2022-09-20T15:06:43.419Z,2.33
2022-09-20T15:09:15.678Z,1.63
2022-09-20T15:11:49.986Z,2.50
2022-09-20T15:14:17.166Z,2.92
2022-09-20T15:16:47.312Z,2.22
2022-09-20T15:19:16.761Z,2.10
2022-09-20T15:21:46.350Z,2.20
2022-09-20T15:24:13.804Z,1.73
2022-09-20T15:26:45.139Z,1.85
2022-09-20T15:29:17.365Z,2.35
2022-09-20T15:31:47.585Z,2.40
2022-09-20T15:34:15.436Z,2.80
2022-09-20T15:36:44.935Z,2.55
2022-09-20T15:39:12.405Z,2.45
2022-09-20T15:41:40.128Z,2.35
2022-09-20T15:44:08.075Z,2.20
2022-09-20T15:46:42.102Z,3.07
2022-09-20T15:49:14.350Z,3.08
2022-09-20T15:51:44.085Z,2.38
2022-09-20T15:54:16.315Z,3.10
2022-09-20T15:56:46.201Z,2.80
2022-09-20T15:59:19.265Z,2.95
2022-09-20T16:01:49.405Z,2.70
2022-09-20T16:04:19.509Z,3.08
2022-09-20T16:06:52.657Z,3.38
2022-09-20T16:09:22.427Z,3.50
2022-09-20T16:11:51.876Z,4.07
2022-09-20T16:14:21.360Z,3.53
2022-09-20T16:16:48.718Z,3.67
2022-09-20T16:19:20.564Z,4.00
2022-09-20T16:21:59.204Z,4.47
2022-09-20T16:24:30.225Z,4.60
2022-09-20T16:26:58.512Z,4.20
2022-09-20T16:29:29.978Z,3.80
2022-09-20T16:34:33.491Z,4.07
2022-09-20T16:37:08.825Z,3.70
2022-09-20T16:39:36.085Z,3.60
2022-09-20T16:42:07.521Z,3.92
2022-09-20T16:44:42.662Z,3.78
2022-09-20T16:47:24.006Z,3.40
2022-09-20T16:49:54.165Z,3.78
2022-09-20T16:52:26.529Z,3.85
2022-09-20T16:54:54.103Z,3.78
2022-09-20T16:57:22.378Z,4.13
2022-09-20T16:59:55.724Z,3.63
2022-09-20T17:02:23.152Z,4.15
2022-09-20T17:04:52.789Z,4.35
2022-09-20T17:07:23.615Z,4.10
2022-09-20T17:09:50.693Z,4.60
2022-09-20T17:12:21.909Z,3.88
2022-09-20T17:14:49.817Z,3.85
2022-09-20T17:17:22.816Z,3.83
2022-09-20T17:19:50.212Z,4.13
2022-09-20T17:22:17.451Z,4.07
2022-09-20T17:24:50.017Z,3.22
2022-09-20T17:27:17.300Z,4.65
2022-09-20T17:29:45.450Z,3.65
2022-09-20T17:32:15.948Z,4.28
2022-09-20T17:34:46.164Z,3.85
2022-09-20T17:37:15.496Z,4.80
2022-09-20T17:39:42.619Z,4.05
2022-09-20T17:42:12.291Z,4.85
2022-09-20T17:44:42.007Z,5.00
2022-09-20T17:47:09.193Z,4.03
2022-09-20T17:49:40.731Z,4.13
2022-09-20T17:52:08.399Z,4.65
2022-09-20T17:54:37.759Z,4.97
2022-09-20T17:57:05.990Z,5.13
2022-09-20T17:59:34.440Z,5.07
2022-09-20T18:02:04.215Z,5.13
2022-09-20T18:04:36.039Z,4.15
2022-09-20T18:07:05.907Z,4.10
2022-09-20T18:09:33.246Z,4.15
2022-09-20T18:12:04.937Z,5.45
2022-09-20T18:14:32.724Z,5.00
2022-09-20T18:17:03.606Z,5.68
2022-09-20T18:19:34.281Z,4.63
2022-09-20T18:22:08.586Z,4.13
2022-09-20T18:24:37.738Z,4.35
2022-09-20T18:27:07.862Z,5.53
2022-09-20T18:29:39.849Z,5.45
2022-09-20T18:32:09.866Z,4.60
2022-09-20T18:34:37.109Z,4.75
2022-09-20T18:37:13.779Z,5.72
2022-09-20T18:39:44.776Z,5.82
2022-09-20T18:42:12.048Z,6.32
2022-09-20T18:44:43.688Z,6.13
2022-09-20T18:47:11.199Z,6.40
2022-09-20T18:49:40.555Z,6.45
2022-09-20T18:52:10.696Z,5.38
2022-09-20T18:54:39.093Z,5.90
2022-09-20T18:57:10.124Z,8.35
2022-09-20T18:59:40.604Z,7.20
2022-09-20T19:02:24.122Z,6.97
2022-09-20T19:04:58.951Z,8.48
2022-09-20T19:07:44.499Z,7.53
2022-09-20T19:10:29.275Z,7.80
2022-09-20T19:15:51.675Z,6.45
2022-09-20T19:18:35.723Z,6.57
2022-09-20T19:21:26.099Z,6.50
2022-09-20T19:24:29.470Z,7.55
2022-09-20T19:26:59.723Z,6.38
2022-09-20T19:29:29.291Z,7.18
2022-09-20T19:31:58.986Z,6.20
2022-09-20T19:34:32.123Z,6.88
2022-09-20T19:37:24.103Z,6.82
2022-09-20T19:40:09.093Z,5.28
2022-09-20T19:45:47.009Z,7.05
2022-09-20T19:48:48.248Z,7.32
2022-09-20T19:51:17.097Z,7.32
2022-09-20T19:53:46.890Z,7.05
2022-09-20T19:56:48.207Z,8.07
2022-09-20T19:59:17.705Z,7.78
2022-09-20T20:01:48.393Z,7.60
2022-09-20T20:04:16.395Z,7.43
2022-09-20T20:07:14.046Z,7.40
2022-09-20T20:09:47.183Z,7.28
2022-09-20T20:12:32.106Z,7.68
2022-09-20T20:15:39.766Z,7.55
2022-09-20T20:18:31.926Z,7.22
2022-09-20T20:21:01.237Z,7.38
2022-09-20T20:23:47.822Z,7.05
2022-09-20T20:26:25.569Z,6.50
2022-09-20T20:28:55.763Z,7.53
2022-09-20T20:31:23.270Z,7.43
2022-09-20T20:33:50.456Z,7.45
2022-09-20T20:36:20.120Z,7.18
2022-09-20T20:38:50.397Z,7.93
2022-09-20T20:43:56.343Z,7.80
2022-09-20T20:46:24.435Z,8.20
2022-09-20T20:48:51.812Z,8.45
2022-09-20T20:51:24.832Z,8.07
2022-09-20T20:53:54.527Z,8.30
2022-09-20T20:56:26.503Z,8.30
2022-09-20T20:59:00.555Z,9.35
2022-09-20T21:01:39.550Z,7.68
2022-09-20T21:04:08.873Z,8.85
2022-09-20T21:06:41.544Z,7.68
2022-09-20T21:09:10.824Z,8.50
2022-09-20T21:11:43.736Z,7.75
2022-09-20T21:14:12.800Z,8.85
2022-09-20T21:16:45.429Z,8.40
2022-09-20T21:19:15.859Z,9.30
2022-09-20T21:21:45.196Z,8.75
2022-09-20T21:24:15.375Z,9.77
2022-09-20T21:26:48.503Z,8.80
2022-09-20T21:29:16.716Z,9.23
2022-09-20T21:31:48.694Z,9.10
2022-09-20T21:34:18.699Z,10.80
2022-09-20T21:36:45.802Z,9.30
2022-09-20T21:39:17.848Z,9.38
2022-09-20T21:41:47.244Z,8.32
2022-09-20T21:44:14.972Z,7.93
2022-09-20T21:46:42.637Z,9.10
2022-09-20T21:49:11.487Z,7.90
2022-09-20T21:51:41.501Z,8.88
2022-09-20T21:54:09.295Z,7.78
2022-09-20T21:56:41.245Z,7.03
2022-09-20T21:59:08.454Z,6.43
2022-09-20T22:01:40.343Z,6.80
2022-09-20T22:04:12.018Z,7.20
2022-09-20T22:06:47.659Z,7.75
2022-09-20T22:09:17.166Z,5.95
2022-09-20T22:11:47.062Z,6.68
2022-09-20T22:14:17.387Z,6.72
2022-09-20T22:16:51.241Z,6.15
2022-09-20T22:19:19.187Z,7.05
2022-09-20T22:21:48.515Z,7.57
2022-09-20T22:24:19.154Z,7.63
2022-09-20T22:26:51.100Z,7.38
2022-09-20T22:29:22.089Z,8.18
2022-09-20T22:31:50.085Z,7.05
2022-09-20T22:34:22.264Z,9.38
2022-09-20T22:36:50.267Z,8.50
2022-09-20T22:39:24.115Z,8.38
2022-09-20T22:41:52.253Z,8.43
2022-09-20T22:44:19.311Z,8.93
2022-09-20T22:46:46.518Z,8.30
2022-09-20T22:49:13.977Z,7.90
2022-09-20T22:51:46.071Z,8.35
2022-09-20T22:54:13.570Z,8.18
2022-09-20T22:56:43.202Z,8.88
2022-09-20T22:59:12.726Z,8.27
2022-09-20T23:01:45.404Z,8.98
2022-09-20T23:04:20.433Z,8.57
2022-09-20T23:06:49.737Z,8.73
2022-09-20T23:09:22.535Z,10.43
2022-09-20T23:14:20.895Z,10.07
2022-09-20T23:16:50.833Z,10.25
2022-09-20T23:21:52.198Z,10.25
2022-09-20T23:24:19.548Z,10.00
2022-09-20T23:26:49.174Z,9.13
2022-09-20T23:29:17.016Z,10.13
2022-09-20T23:31:47.814Z,9.27
2022-09-20T23:34:17.283Z,9.45
2022-09-20T23:36:47.271Z,9.38
2022-09-20T23:39:15.290Z,10.43
2022-09-20T23:41:45.778Z,9.93
2022-09-20T23:44:16.203Z,10.23
2022-09-20T23:46:43.350Z,10.38
2022-09-20T23:49:12.579Z,9.40
2022-09-20T23:51:39.943Z,9.07
2022-09-20T23:54:09.313Z,8.88
2022-09-20T23:56:40.265Z,8.80
2022-09-20T23:59:07.640Z,9.05
